createdAt,value
2017-08-18T00:00:18.498Z,100913.61
2017-08-18T00:02:53.561Z,100913.49
2017-08-18T00:05:28.290Z,100916.05
2017-08-18T00:08:03.131Z,100912.22
2017-08-18T00:10:38.115Z,100909.75
2017-08-18T00:13:12.839Z,100911.29
2017-08-18T00:15:47.598Z,100913.02
2017-08-18T00:18:22.213Z,100910.53
2017-08-18T00:20:57.956Z,100918.45
2017-08-18T00:23:32.330Z,100915.93
2017-08-18T00:26:07.263Z,100914.73
2017-08-18T00:28:42.292Z,100916.88
2017-08-18T00:31:16.666Z,100913.39
2017-08-18T00:33:51.518Z,100917.72
2017-08-18T00:36:27.356Z,100908.95
2017-08-18T00:39:02.071Z,100913.03
2017-08-18T00:41:36.369Z,100910.39
2017-08-18T00:44:11.430Z,100911.17
2017-08-18T00:46:46.140Z,100909.64
2017-08-18T00:49:20.870Z,100906.83
2017-08-18T00:51:55.719Z,100909.66
2017-08-18T00:54:31.056Z,100910.95
2017-08-18T00:57:05.930Z,100905.66
2017-08-18T00:59:40.911Z,100906.26
2017-08-18T01:02:15.458Z,100899.41
2017-08-18T01:04:50.051Z,100903.86
2017-08-18T01:07:24.795Z,100915.23
2017-08-18T01:09:59.463Z,100909.50
2017-08-18T01:12:34.247Z,100906.33
2017-08-18T01:15:09.181Z,100909.92
2017-08-18T01:17:44.855Z,100908.81
2017-08-18T01:20:19.264Z,100907.70
2017-08-18T01:22:54.414Z,100898.66
2017-08-18T01:25:29.243Z,100906.34
2017-08-18T01:28:04.172Z,100901.41
2017-08-18T01:30:39.324Z,100898.91
2017-08-18T01:33:14.667Z,100895.93
2017-08-18T01:35:49.375Z,100899.78
2017-08-18T01:38:24.326Z,100898.52
2017-08-18T01:40:59.027Z,100897.22
2017-08-18T01:43:33.739Z,100887.18
2017-08-18T01:46:09.443Z,100894.33
2017-08-18T01:48:44.323Z,100893.56
2017-08-18T01:51:20.082Z,100895.36
2017-08-18T01:53:54.831Z,100895.69
2017-08-18T01:56:29.580Z,100900.12
2017-08-18T01:59:04.439Z,100890.48
2017-08-18T02:01:39.863Z,100902.25
2017-08-18T02:04:15.167Z,100895.67
2017-08-18T02:06:49.986Z,100895.41
2017-08-18T02:09:24.428Z,100892.35
2017-08-18T02:11:59.747Z,100894.31
2017-08-18T02:14:34.940Z,100885.07
2017-08-18T02:17:09.588Z,100879.86
2017-08-18T02:19:44.031Z,100876.70
2017-08-18T02:22:19.743Z,100876.80
2017-08-18T02:24:54.342Z,100880.47
2017-08-18T02:27:29.066Z,100884.22
2017-08-18T02:30:03.726Z,100884.72
2017-08-18T02:32:38.623Z,100888.22
2017-08-18T02:35:13.355Z,100886.83
2017-08-18T02:37:48.212Z,100881.17
2017-08-18T02:40:23.119Z,100885.19
2017-08-18T02:42:58.167Z,100881.44
2017-08-18T02:45:32.831Z,100886.94
2017-08-18T02:48:07.879Z,100878.95
2017-08-18T02:50:42.561Z,100877.97
2017-08-18T02:53:17.227Z,100877.16
2017-08-18T02:55:51.986Z,100878.78
2017-08-18T02:58:26.634Z,100881.71
2017-08-18T03:01:01.361Z,100894.73
2017-08-18T03:03:37.292Z,100899.27
2017-08-18T03:06:12.047Z,100896.19
2017-08-18T03:08:48.721Z,100885.95
2017-08-18T03:11:23.454Z,100878.43
2017-08-18T03:13:58.312Z,100884.50
2017-08-18T03:16:33.111Z,100878.69
2017-08-18T03:19:07.767Z,100886.14
2017-08-18T03:21:42.756Z,100880.42
2017-08-18T03:24:17.524Z,100867.84
2017-08-18T03:26:52.354Z,100860.84
2017-08-18T03:29:27.059Z,100862.78
2017-08-18T03:32:03.023Z,100857.56
2017-08-18T03:34:37.827Z,100855.93
2017-08-18T03:37:12.947Z,100852.23
2017-08-18T03:39:47.354Z,100852.78
2017-08-18T03:42:21.730Z,100844.42
2017-08-18T03:44:57.269Z,100850.97
2017-08-18T03:47:31.850Z,100863.85
2017-08-18T03:50:06.467Z,100872.47
2017-08-18T03:52:41.667Z,100872.59
2017-08-18T03:55:16.293Z,100880.47
2017-08-18T03:57:50.919Z,100886.47
2017-08-18T04:00:26.715Z,100882.13
2017-08-18T04:03:01.399Z,100867.17
2017-08-18T04:05:36.132Z,100866.66
2017-08-18T04:08:11.016Z,100863.89
2017-08-18T04:10:45.717Z,100862.08
2017-08-18T04:13:21.367Z,100862.66
2017-08-18T04:15:56.195Z,100862.52
2017-08-18T04:18:30.904Z,100862.86
2017-08-18T04:21:05.767Z,100866.30
2017-08-18T04:23:41.008Z,100855.72
2017-08-18T04:26:17.115Z,100859.94
2017-08-18T04:28:52.072Z,100850.01
2017-08-18T04:31:26.856Z,100852.11
2017-08-18T04:34:01.605Z,100840.28
2017-08-18T04:36:36.549Z,100844.42
2017-08-18T04:39:11.447Z,100833.91
2017-08-18T04:41:46.215Z,100844.38
2017-08-18T04:44:21.063Z,100840.46
2017-08-18T04:46:55.592Z,100852.77
2017-08-18T04:49:30.591Z,100860.28
2017-08-18T04:52:05.393Z,100862.14
2017-08-18T04:54:40.388Z,100870.56
2017-08-18T04:57:15.578Z,100869.03
2017-08-18T04:59:50.364Z,100885.52
2017-08-18T05:02:25.339Z,100886.41
2017-08-18T05:04:59.744Z,100880.92
2017-08-18T05:07:34.470Z,100888.09
2017-08-18T05:10:09.066Z,100876.87
2017-08-18T05:12:43.835Z,100878.73
2017-08-18T05:15:19.647Z,100868.36
2017-08-18T05:17:54.380Z,100863.25
2017-08-18T05:20:29.004Z,100874.02
2017-08-18T05:23:03.743Z,100877.67
2017-08-18T05:25:38.584Z,100870.59
2017-08-18T05:28:13.317Z,100879.05
2017-08-18T05:30:48.948Z,100873.45
2017-08-18T05:33:23.771Z,100871.45
2017-08-18T05:35:58.783Z,100866.17
2017-08-18T05:38:33.790Z,100855.34
2017-08-18T05:41:08.374Z,100857.16
2017-08-18T05:43:43.353Z,100862.70
2017-08-18T05:46:18.639Z,100850.48
2017-08-18T05:48:53.511Z,100849.97
2017-08-18T05:51:28.339Z,100847.36
2017-08-18T05:54:03.043Z,100854.70
2017-08-18T05:56:37.698Z,100852.32
2017-08-18T05:59:12.397Z,100849.94
2017-08-18T06:01:47.226Z,100839.27
2017-08-18T06:04:21.948Z,100844.63
2017-08-18T06:06:57.628Z,100835.85
2017-08-18T06:09:32.293Z,100831.16
2017-08-18T06:12:06.703Z,100830.04
2017-08-18T06:14:42.656Z,100838.74
2017-08-18T06:17:17.484Z,100838.67
2017-08-18T06:19:53.172Z,100848.38
2017-08-18T06:22:27.915Z,100843.42
2017-08-18T06:25:02.560Z,100841.64
2017-08-18T06:27:37.243Z,100842.52
2017-08-18T06:30:12.911Z,100836.34
2017-08-18T06:32:47.524Z,100844.56
2017-08-18T06:35:23.028Z,100849.34
2017-08-18T06:37:57.703Z,100850.27
2017-08-18T06:40:33.395Z,100843.78
2017-08-18T06:43:08.006Z,100839.01
2017-08-18T06:45:42.612Z,100847.22
2017-08-18T06:48:17.744Z,100851.41
2017-08-18T06:50:52.723Z,100844.31
2017-08-18T06:53:27.579Z,100832.36
2017-08-18T06:56:02.608Z,100827.72
2017-08-18T06:58:37.027Z,100820.02
2017-08-18T07:01:11.808Z,100824.48
2017-08-18T07:03:46.416Z,100816.14
2017-08-18T07:06:21.111Z,100808.11
2017-08-18T07:08:55.895Z,100807.52
2017-08-18T07:11:30.783Z,100806.64
2017-08-18T07:14:09.228Z,100797.84
2017-08-18T07:16:44.413Z,100797.34
2017-08-18T07:19:19.434Z,100794.17
2017-08-18T07:21:54.176Z,100796.56
2017-08-18T07:24:29.004Z,100803.58
2017-08-18T07:27:04.123Z,100824.59
2017-08-18T07:29:39.055Z,100810.23
2017-08-18T07:32:13.899Z,100829.78
2017-08-18T07:34:48.699Z,100836.27
2017-08-18T07:37:24.660Z,100834.80
2017-08-18T07:39:59.334Z,100830.63
2017-08-18T07:42:33.954Z,100818.42
2017-08-18T07:45:08.643Z,100827.37
2017-08-18T07:47:43.367Z,100828.86
2017-08-18T07:50:17.898Z,100830.97
2017-08-18T07:52:52.544Z,100823.48
2017-08-18T07:55:27.496Z,100814.59
2017-08-18T07:58:02.207Z,100820.92
2017-08-18T08:00:37.114Z,100816.91
2017-08-18T08:03:11.752Z,100829.86
2017-08-18T08:05:46.395Z,100842.98
2017-08-18T08:08:21.156Z,100852.52
2017-08-18T08:10:55.851Z,100839.23
2017-08-18T08:13:30.556Z,100838.03
2017-08-18T08:16:06.411Z,100840.08
2017-08-18T08:18:41.139Z,100840.33
2017-08-18T08:21:15.872Z,100850.41
2017-08-18T08:23:50.497Z,100857.10
2017-08-18T08:26:26.375Z,100850.95
2017-08-18T08:29:01.100Z,100861.95
2017-08-18T08:31:35.809Z,100859.42
2017-08-18T08:34:10.428Z,100854.31
2017-08-18T08:36:45.266Z,100858.14
2017-08-18T08:39:21.155Z,100856.08
2017-08-18T08:41:56.871Z,100858.31
2017-08-18T08:44:31.620Z,100855.36
2017-08-18T08:47:06.145Z,100859.00
2017-08-18T08:49:40.876Z,100853.13
2017-08-18T08:52:15.795Z,100851.64
2017-08-18T08:54:50.926Z,100847.64
2017-08-18T08:57:25.555Z,100860.17
2017-08-18T08:59:59.943Z,100854.78
2017-08-18T09:02:34.824Z,100839.27
2017-08-18T09:05:09.556Z,100822.38
2017-08-18T09:07:44.735Z,100797.66
2017-08-18T09:10:19.342Z,100793.60
2017-08-18T09:12:54.171Z,100798.17
2017-08-18T09:15:29.064Z,100791.05
2017-08-18T09:18:04.150Z,100798.73
2017-08-18T09:20:39.072Z,100802.52
2017-08-18T09:23:14.940Z,100805.63
2017-08-18T09:25:49.612Z,100799.89
2017-08-18T09:28:25.295Z,100801.95
2017-08-18T09:30:59.902Z,100793.77
2017-08-18T09:33:35.676Z,100791.22
2017-08-18T09:36:10.184Z,100795.22
2017-08-18T09:38:44.967Z,100794.36
2017-08-18T09:41:19.715Z,100794.03
2017-08-18T09:43:54.364Z,100788.59
2017-08-18T09:46:29.095Z,100788.06
2017-08-18T09:49:14.990Z,100789.93
2017-08-18T09:52:00.664Z,100779.81
2017-08-18T09:54:46.544Z,100794.19
2017-08-18T09:57:33.652Z,100798.36
2017-08-18T10:00:08.152Z,100788.83
2017-08-18T10:02:43.340Z,100798.39
2017-08-18T10:05:18.363Z,100798.64
2017-08-18T10:07:53.219Z,100785.50
2017-08-18T10:10:27.942Z,100779.27
2017-08-18T10:13:02.646Z,100775.00
2017-08-18T10:15:37.676Z,100773.89
2017-08-18T10:18:12.407Z,100785.99
2017-08-18T10:20:47.556Z,100781.48
2017-08-18T10:23:22.344Z,100772.84
2017-08-18T10:25:59.366Z,100773.80
2017-08-18T10:28:34.972Z,100774.79
2017-08-18T10:31:10.176Z,100764.61
2017-08-18T10:33:45.096Z,100768.45
2017-08-18T10:36:19.878Z,100763.74
2017-08-18T10:38:54.540Z,100751.88
2017-08-18T10:41:29.415Z,100748.33
2017-08-18T10:44:04.139Z,100756.65
2017-08-18T10:46:38.935Z,100749.45
2017-08-18T10:49:13.797Z,100753.91
2017-08-18T10:51:48.403Z,100758.20
2017-08-18T10:54:23.168Z,100754.50
2017-08-18T10:56:57.907Z,100757.32
2017-08-18T10:59:32.620Z,100755.17
2017-08-18T11:02:07.434Z,100753.98
2017-08-18T11:04:42.147Z,100743.09
2017-08-18T11:07:17.123Z,100747.23
2017-08-18T11:09:51.735Z,100749.92
2017-08-18T11:12:26.346Z,100746.27
2017-08-18T11:15:00.868Z,100744.34
2017-08-18T11:17:35.712Z,100734.50
2017-08-18T11:20:10.347Z,100743.42
2017-08-18T11:22:45.144Z,100742.27
2017-08-18T11:25:19.878Z,100744.53
2017-08-18T11:27:54.504Z,100746.35
2017-08-18T11:30:29.233Z,100739.77
2017-08-18T11:33:03.954Z,100737.40
2017-08-18T11:35:39.570Z,100735.03
2017-08-18T11:38:14.272Z,100732.22
2017-08-18T11:40:48.776Z,100731.33
2017-08-18T11:43:23.499Z,100736.17
2017-08-18T11:45:58.403Z,100732.30
2017-08-18T11:48:33.156Z,100733.64
2017-08-18T11:51:07.878Z,100739.09
2017-08-18T11:53:42.568Z,100732.06
2017-08-18T11:56:17.024Z,100722.76
2017-08-18T11:58:51.720Z,100723.77
2017-08-18T12:01:26.479Z,100732.10
2017-08-18T12:04:01.116Z,100734.74
2017-08-18T12:06:36.315Z,100730.77
2017-08-18T12:09:10.816Z,100728.17
2017-08-18T12:11:45.418Z,100728.84
2017-08-18T12:14:20.270Z,100726.38
2017-08-18T12:16:56.007Z,100730.88
2017-08-18T12:19:30.687Z,100724.13
2017-08-18T12:22:05.659Z,100727.23
2017-08-18T12:24:40.292Z,100719.06
2017-08-18T12:27:15.006Z,100721.63
2017-08-18T12:29:50.975Z,100722.12
2017-08-18T12:32:25.799Z,100720.02
2017-08-18T12:35:01.809Z,100709.39
2017-08-18T12:37:36.282Z,100719.47
2017-08-18T12:40:11.034Z,100714.94
2017-08-18T12:42:45.876Z,100715.25
2017-08-18T12:45:20.722Z,100714.20
2017-08-18T12:47:57.487Z,100714.61
2017-08-18T12:50:31.994Z,100705.28
2017-08-18T12:53:06.811Z,100707.60
2017-08-18T12:55:41.662Z,100709.33
2017-08-18T12:58:16.143Z,100705.70
2017-08-18T13:00:51.054Z,100706.95
2017-08-18T13:03:25.743Z,100709.16
2017-08-18T13:06:01.576Z,100703.35
2017-08-18T13:08:36.442Z,100703.61
2017-08-18T13:11:11.069Z,100704.00
2017-08-18T13:13:45.744Z,100705.46
2017-08-18T13:16:20.479Z,100706.32
2017-08-18T13:18:55.311Z,100703.95
2017-08-18T13:21:30.388Z,100697.59
2017-08-18T13:24:05.004Z,100703.14
2017-08-18T13:26:39.743Z,100701.76
2017-08-18T13:29:14.567Z,100704.19
2017-08-18T13:31:48.976Z,100708.05
2017-08-18T13:34:24.326Z,100701.00
2017-08-18T13:36:58.971Z,100702.84
2017-08-18T13:39:33.580Z,100691.94
2017-08-18T13:42:08.036Z,100694.66
2017-08-18T13:44:43.255Z,100683.09
2017-08-18T13:47:17.895Z,100680.13
2017-08-18T13:49:52.658Z,100677.11
2017-08-18T13:52:28.406Z,100668.13
2017-08-18T13:55:03.447Z,100658.27
2017-08-18T13:57:38.523Z,100660.93
2017-08-18T14:00:13.399Z,100647.95
2017-08-18T14:02:48.415Z,100654.23
2017-08-18T14:05:23.200Z,100652.39
2017-08-18T14:07:58.314Z,100644.50
2017-08-18T14:10:34.096Z,100637.59
2017-08-18T14:13:08.796Z,100631.89
2017-08-18T14:15:43.538Z,100635.08
2017-08-18T14:18:18.543Z,100630.02
2017-08-18T14:20:53.556Z,100625.19
2017-08-18T14:23:28.166Z,100628.22
2017-08-18T14:26:08.343Z,100622.73
2017-08-18T14:28:42.780Z,100624.70
2017-08-18T14:31:17.591Z,100621.32
2017-08-18T14:33:52.435Z,100620.66
2017-08-18T14:36:27.346Z,100624.52
2017-08-18T14:39:02.935Z,100620.45
2017-08-18T14:41:38.208Z,100617.16
2017-08-18T14:44:13.100Z,100611.14
2017-08-18T14:46:47.831Z,100605.89
2017-08-18T14:49:22.798Z,100603.39
2017-08-18T14:51:57.843Z,100602.02
2017-08-18T14:54:32.598Z,100606.27
2017-08-18T14:57:08.350Z,100602.34
2017-08-18T14:59:43.166Z,100597.62
2017-08-18T15:02:18.007Z,100594.95
2017-08-18T15:04:52.872Z,100594.19
2017-08-18T15:07:27.562Z,100593.80
2017-08-18T15:10:02.542Z,100591.16
2017-08-18T15:12:37.207Z,100591.05
2017-08-18T15:15:12.872Z,100594.50
2017-08-18T15:17:47.779Z,100592.77
2017-08-18T15:20:22.631Z,100595.30
2017-08-18T15:22:57.450Z,100591.11
2017-08-18T15:25:32.315Z,100592.48
2017-08-18T15:28:08.027Z,100577.86
2017-08-18T15:30:42.941Z,100578.98
2017-08-18T15:33:17.682Z,100582.56
2017-08-18T15:35:52.335Z,100581.55
2017-08-18T15:38:26.926Z,100582.11
2017-08-18T15:41:01.819Z,100581.17
2017-08-18T15:43:36.635Z,100576.82
2017-08-18T15:46:12.350Z,100590.69
2017-08-18T15:48:47.015Z,100579.83
2017-08-18T15:51:21.735Z,100585.40
2017-08-18T15:53:56.577Z,100588.52
2017-08-18T15:56:31.293Z,100582.17
2017-08-18T15:59:06.226Z,100583.53
2017-08-18T16:01:40.983Z,100591.87
2017-08-18T16:04:15.851Z,100595.31
2017-08-18T16:06:50.679Z,100599.32
2017-08-18T16:09:25.315Z,100601.15
2017-08-18T16:12:01.316Z,100599.78
2017-08-18T16:14:35.931Z,100602.28
2017-08-18T16:17:10.807Z,100608.33
2017-08-18T16:19:45.481Z,100608.47
2017-08-18T16:22:20.823Z,100610.18
2017-08-18T16:24:55.612Z,100605.42
2017-08-18T16:27:30.374Z,100610.75
2017-08-18T16:30:05.006Z,100617.55
2017-08-18T16:32:39.721Z,100619.41
2017-08-18T16:35:14.553Z,100619.41
2017-08-18T16:37:48.947Z,100617.70
2017-08-18T16:40:23.842Z,100618.97
2017-08-18T16:42:58.347Z,100621.81
2017-08-18T16:45:33.295Z,100621.66
2017-08-18T16:48:07.959Z,100622.25
2017-08-18T16:50:42.611Z,100614.05
2017-08-18T16:53:17.463Z,100621.91
2017-08-18T16:55:52.382Z,100614.77
2017-08-18T16:58:27.163Z,100607.80
2017-08-18T17:01:02.232Z,100607.32
2017-08-18T17:03:36.942Z,100603.75
2017-08-18T17:06:11.751Z,100595.41
2017-08-18T17:08:47.588Z,100589.63
2017-08-18T17:11:22.277Z,100591.64
2017-08-18T17:13:57.147Z,100594.62
2017-08-18T17:16:31.891Z,100601.45
2017-08-18T17:19:06.627Z,100602.97
2017-08-18T17:21:41.340Z,100604.09
2017-08-18T17:24:15.844Z,100595.66
2017-08-18T17:26:50.971Z,100603.16
2017-08-18T17:29:26.248Z,100601.50
2017-08-18T17:32:01.070Z,100600.19
2017-08-18T17:34:35.848Z,100595.27
2017-08-18T17:37:10.639Z,100595.39
2017-08-18T17:39:45.447Z,100593.44
2017-08-18T17:42:20.240Z,100591.45
2017-08-18T17:44:55.195Z,100591.48
2017-08-18T17:47:29.926Z,100595.39
2017-08-18T17:50:04.669Z,100604.08
2017-08-18T17:52:39.275Z,100607.80
2017-08-18T17:55:14.116Z,100605.02
2017-08-18T17:57:49.953Z,100605.51
2017-08-18T18:00:24.714Z,100601.41
2017-08-18T18:02:59.224Z,100610.56
2017-08-18T18:05:34.052Z,100606.81
2017-08-18T18:08:09.706Z,100608.61
2017-08-18T18:10:44.329Z,100607.00
2017-08-18T18:13:20.200Z,100601.35
2017-08-18T18:15:55.031Z,100596.66
2017-08-18T18:18:29.718Z,100590.39
2017-08-18T18:21:04.460Z,100578.55
2017-08-18T18:23:39.195Z,100585.55
2017-08-18T18:26:13.928Z,100597.31
2017-08-18T18:28:48.909Z,100608.42
2017-08-18T18:31:24.524Z,100606.44
2017-08-18T18:33:59.235Z,100608.42
2017-08-18T18:36:33.963Z,100618.50
2017-08-18T18:39:08.978Z,100616.39
2017-08-18T18:41:44.247Z,100623.81
2017-08-18T18:44:19.078Z,100629.95
2017-08-18T18:46:53.899Z,100624.67
2017-08-18T18:49:28.312Z,100626.06
2017-08-18T18:52:03.102Z,100622.91
2017-08-18T18:54:37.819Z,100619.03
2017-08-18T18:57:12.685Z,100616.87
2017-08-18T18:59:47.239Z,100624.66
2017-08-18T19:02:22.323Z,100621.84
2017-08-18T19:04:57.243Z,100626.16
2017-08-18T19:07:32.775Z,100621.06
2017-08-18T19:10:07.416Z,100620.37
2017-08-18T19:12:42.150Z,100629.33
2017-08-18T19:15:17.154Z,100626.34
2017-08-18T19:17:51.985Z,100639.89
2017-08-18T19:20:26.532Z,100642.78
2017-08-18T19:23:01.631Z,100655.08
2017-08-18T19:25:36.216Z,100655.56
2017-08-18T19:28:11.003Z,100667.78
2017-08-18T19:30:46.240Z,100656.09
2017-08-18T19:33:22.124Z,100651.49
2017-08-18T19:35:56.719Z,100648.42
2017-08-18T19:38:31.469Z,100652.33
2017-08-18T19:41:06.383Z,100651.49
2017-08-18T19:43:41.082Z,100667.52
2017-08-18T19:46:15.774Z,100677.30
2017-08-18T19:48:50.587Z,100684.04
2017-08-18T19:51:25.599Z,100686.06
2017-08-18T19:54:00.664Z,100684.94
2017-08-18T19:56:35.372Z,100697.53
2017-08-18T19:59:10.125Z,100699.83
2017-08-18T20:01:44.852Z,100707.74
2017-08-18T20:04:19.498Z,100703.19
2017-08-18T20:06:54.219Z,100698.73
2017-08-18T20:09:28.807Z,100702.33
2017-08-18T20:12:03.486Z,100695.25
2017-08-18T20:14:38.235Z,100695.66
2017-08-18T20:17:14.004Z,100695.97
2017-08-18T20:19:48.755Z,100687.23
2017-08-18T20:22:23.350Z,100694.36
2017-08-18T20:24:58.603Z,100695.81
2017-08-18T20:27:33.139Z,100703.67
2017-08-18T20:30:07.864Z,100709.47
2017-08-18T20:32:42.775Z,100716.27
2017-08-18T20:35:18.080Z,100727.08
2017-08-18T20:37:52.859Z,100730.19
2017-08-18T20:40:27.686Z,100735.94
2017-08-18T20:43:02.468Z,100725.56
2017-08-18T20:45:37.206Z,100728.00
2017-08-18T20:48:11.818Z,100717.44
2017-08-18T20:50:46.516Z,100721.87
2017-08-18T20:53:21.282Z,100725.47
2017-08-18T20:55:56.021Z,100721.69
2017-08-18T20:58:30.755Z,100722.66
2017-08-18T21:01:05.630Z,100716.26
2017-08-18T21:03:40.339Z,100724.23
2017-08-18T21:06:15.096Z,100736.61
2017-08-18T21:08:50.304Z,100733.84
2017-08-18T21:11:25.176Z,100743.58
2017-08-18T21:14:00.015Z,100751.77
2017-08-18T21:16:35.030Z,100749.00
2017-08-18T21:19:09.951Z,100755.23
2017-08-18T21:21:44.690Z,100754.24
2017-08-18T21:24:20.223Z,100769.28
2017-08-18T21:26:54.775Z,100771.45
2017-08-18T21:29:29.514Z,100766.02
2017-08-18T21:32:04.461Z,100766.65
2017-08-18T21:34:39.583Z,100775.03
2017-08-18T21:37:14.326Z,100789.88
2017-08-18T21:39:49.303Z,100784.81
2017-08-18T21:42:25.163Z,100787.83
2017-08-18T21:44:59.946Z,100781.19
2017-08-18T21:47:34.734Z,100778.11
2017-08-18T21:50:09.604Z,100781.23
2017-08-18T21:52:44.323Z,100778.42
2017-08-18T21:55:18.998Z,100773.26
2017-08-18T21:57:53.755Z,100767.62
2017-08-18T22:00:28.143Z,100752.59
2017-08-18T22:03:03.140Z,100726.59
2017-08-18T22:05:38.143Z,100712.11
2017-08-18T22:08:12.985Z,100720.62
2017-08-18T22:10:47.799Z,100734.66
2017-08-18T22:13:23.565Z,100751.56
2017-08-18T22:15:58.360Z,100747.00
2017-08-18T22:18:33.040Z,100750.55
2017-08-18T22:21:07.945Z,100751.00
2017-08-18T22:23:43.915Z,100746.34
2017-08-18T22:26:19.671Z,100750.75
2017-08-18T22:28:54.414Z,100756.00
2017-08-18T22:31:29.130Z,100776.60
2017-08-18T22:34:03.951Z,100781.47
2017-08-18T22:36:39.811Z,100784.19
2017-08-18T22:39:14.660Z,100775.84
2017-08-18T22:41:49.435Z,100772.94
2017-08-18T22:44:24.272Z,100773.38
2017-08-18T22:47:00.043Z,100766.27
2017-08-18T22:49:34.914Z,100755.73
2017-08-18T22:52:09.803Z,100748.23
2017-08-18T22:54:44.782Z,100748.19
2017-08-18T22:57:19.814Z,100746.68
2017-08-18T22:59:55.561Z,100752.19
2017-08-18T23:02:30.427Z,100752.83
2017-08-18T23:05:06.240Z,100763.42
2017-08-18T23:07:41.770Z,100767.00
2017-08-18T23:10:16.415Z,100761.30
2017-08-18T23:12:51.240Z,100769.09
2017-08-18T23:15:27.181Z,100760.94
2017-08-18T23:18:02.068Z,100770.50
2017-08-18T23:20:36.859Z,100772.65
2017-08-18T23:23:12.576Z,100769.30
2017-08-18T23:25:47.220Z,100763.04
2017-08-18T23:28:22.304Z,100764.27
2017-08-18T23:30:58.018Z,100768.26
2017-08-18T23:33:32.764Z,100772.75
2017-08-18T23:36:08.702Z,100773.84
2017-08-18T23:38:43.658Z,100770.47
2017-08-18T23:41:18.565Z,100778.39
2017-08-18T23:43:54.175Z,100776.55
2017-08-18T23:46:28.810Z,100779.95
2017-08-18T23:49:03.706Z,100786.42
2017-08-18T23:51:38.432Z,100790.07
2017-08-18T23:54:13.364Z,100795.36
2017-08-18T23:56:48.207Z,100802.47
2017-08-18T23:59:22.919Z,100805.89
